Impacts METAR Board
IDs:

KTOI - Troy Muni, AL, US

Updated at: 2000 UTC 15 Aug 2018
Potential Impact None Slight Moderate High
Time 15/08Z 15/09Z 15/10Z 15/11Z 15/12Z 15/13Z 15/14Z 15/15Z 15/16Z 15/17Z 15/18Z 15/19Z 15/20Z
Temp70 70 70 68 70 73 78 82 86 87 89 91 92
Dewpt70 69 69 67 69 72 72 73 73 73 73 73 72
Altim30.04 30.05 30.05 30.06 30.08 30.09 30.10 30.10 30.10 30.09 30.09 30.06 30.05
VIS0.5 1.75 5 1.75 9 10 10 10 10 10 10 10 10
CIG1 -- -- -- -- -- -- -- -- -- 39 70 --
CoverOVCFEWCLRFEWCLRCLRCLRCLRCLRFEWBKNBKNFEW
FltCatLIFRIFRMVFRIFRVFRVFRVFRVFRVFRVFRVFRVFRVFR
WXFGBRBRBR------------------
WDir03400000016010023001900
WSpd0 3 0 0 0 0 0 3 4 3 0 6 0
WGst-- -- -- -- -- -- -- -- -- -- -- -- --
Raw hourly METARs
KTOI 150759Z AUTO 00000KT 1/2SM FG OVC001 21/21 A3004 RMK AO2 T02110211
KTOI 150904Z AUTO 34003KT 1 3/4SM BR FEW002 21/21 A3005 RMK AO2 T02110206
KTOI 151000Z AUTO 00000KT 5SM BR CLR 21/21 A3005 RMK AO2 T02110206
KTOI 151105Z AUTO 00000KT 1 3/4SM BR FEW002 20/19 A3006 RMK AO2 T02000194
KTOI 151153Z AUTO 00000KT 9SM CLR 21/21 A3008 RMK AO2 SLP179 70004 T02110206 10217 20200 53009
KTOI 151253Z AUTO 00000KT 10SM CLR 23/22 A3009 RMK AO2 SLP185 T02280222
KTOI 151353Z AUTO 00000KT 10SM CLR 26/22 A3010 RMK AO2 SLP186 T02560222
KTOI 151453Z AUTO 16003KT 10SM CLR 28/23 A3010 RMK AO2 SLP188 T02780228 51008
KTOI 151553Z AUTO 10004KT 10SM CLR 30/23 A3010 RMK AO2 SLP187 T03000228
KTOI 151653Z AUTO 23003KT 10SM FEW032 31/23 A3009 RMK AO2 SLP183 T03060228
KTOI 151753Z AUTO 00000KT 10SM BKN039 32/23 A3009 RMK AO2 SLP182 T03170228 10322 20211 58004
KTOI 151853Z AUTO 19006KT 10SM FEW055 BKN070 33/23 A3006 RMK AO2 SLP175 T03280228
KTOI 151953Z AUTO 00000KT 10SM FEW065 33/22 A3005 RMK AO2 SLP171 T03330222



Page loaded:  20:43 UTC  |   01:43 PM Pacific  |   02:43 PM Mountain  |   03:43 PM Central  |   04:43 PM Eastern

 

ADVISORIES

FORECASTS

FORECASTS

OBSERVATIONS

USER TOOLS

ABOUT US